Time;durP1;ratioP1;P1;durP2;ratioP2;P2;SDS_P1;SDS_P2;PMS_P1;PMS_P2;Temp;Humidity;BMP_temperature;BMP_pressure;BME280_temperature;BME280_humidity;BME280_pressure;Samples;Min_cycle;Max_cycle;Signal;HPM_P1;HPM_P2
2023/07/07 00:00:35;;;;;;;8.15;5.72;;;14.50;99.90;;;;;;5018641;28;20029;-80
2023/07/07 00:03:00;;;;;;;10.10;6.32;;;14.50;99.90;;;;;;5019182;28;20046;-81
2023/07/07 00:05:28;;;;;;;10.60;6.07;;;14.50;99.90;;;;;;5017926;28;20095;-81
2023/07/07 00:07:53;;;;;;;9.95;5.57;;;14.50;99.90;;;;;;5016760;28;20037;-81
2023/07/07 00:10:19;;;;;;;8.00;5.28;;;14.50;99.90;;;;;;5018735;28;20380;-81
2023/07/07 00:12:45;;;;;;;11.48;6.57;;;14.50;99.90;;;;;;5018433;28;20026;-81
2023/07/07 00:15:11;;;;;;;11.95;6.80;;;14.40;99.90;;;;;;5016436;28;20504;-81
2023/07/07 00:17:37;;;;;;;8.45;5.95;;;14.40;99.90;;;;;;5018304;28;20095;-81
2023/07/07 00:20:04;;;;;;;8.85;6.30;;;14.40;99.90;;;;;;5018836;28;20037;-81
2023/07/07 00:22:31;;;;;;;9.32;6.22;;;14.40;99.90;;;;;;5018157;28;20046;-80
2023/07/07 00:24:57;;;;;;;10.18;5.85;;;14.40;99.90;;;;;;5017206;28;20030;-80
2023/07/07 00:27:22;;;;;;;9.45;6.85;;;14.30;99.90;;;;;;5016541;28;20036;-81
2023/07/07 00:29:48;;;;;;;10.27;6.60;;;14.40;99.90;;;;;;5017018;28;20061;-80
2023/07/07 00:32:13;;;;;;;9.77;6.72;;;14.30;99.90;;;;;;5017163;28;20026;-81
2023/07/07 00:34:39;;;;;;;8.50;5.78;;;14.30;99.90;;;;;;5017407;28;20522;-82
2023/07/07 00:37:04;;;;;;;9.63;6.05;;;14.30;99.90;;;;;;5016814;28;20877;-81
2023/07/07 00:39:30;;;;;;;11.32;6.30;;;14.30;99.90;;;;;;5017198;28;20104;-80
2023/07/07 00:41:56;;;;;;;12.40;6.90;;;14.30;99.90;;;;;;5016068;28;20049;-81
2023/07/07 00:44:28;;;;;;;10.32;6.22;;;14.20;99.90;;;;;;5017216;28;20539;-80
2023/07/07 00:46:54;;;;;;;12.55;6.75;;;14.20;99.90;;;;;;5016444;28;20601;-80
2023/07/07 00:49:22;;;;;;;12.77;6.28;;;14.20;99.90;;;;;;5018306;28;20030;-80
2023/07/07 00:51:52;;;;;;;10.00;6.50;;;14.20;99.90;;;;;;5017159;28;20025;-80
2023/07/07 00:54:23;;;;;;;10.35;6.55;;;14.10;99.90;;;;;;5018077;28;20065;-81
2023/07/07 00:56:51;;;;;;;9.90;6.28;;;14.10;99.90;;;;;;5020554;28;20038;-81
2023/07/07 00:59:25;;;;;;;18.77;5.97;;;14.10;99.90;;;;;;5020861;28;20121;-81
2023/07/07 01:01:55;;;;;;;8.55;5.45;;;14.10;99.90;;;;;;5017896;28;20042;-81
2023/07/07 01:04:21;;;;;;;8.80;6.00;;;14.10;99.90;;;;;;5017283;28;20029;-80
2023/07/07 01:06:52;;;;;;;8.98;6.22;;;14.00;99.90;;;;;;5022385;28;20068;-80
2023/07/07 01:09:17;;;;;;;9.10;6.10;;;14.00;99.90;;;;;;5024084;28;20054;-81
2023/07/07 01:11:46;;;;;;;7.70;5.47;;;13.90;99.90;;;;;;5022467;28;20083;-80
2023/07/07 01:14:24;;;;;;;9.30;6.35;;;13.90;99.90;;;;;;5022567;28;20030;-81
2023/07/07 01:17:15;;;;;;;10.13;5.95;;;13.90;99.90;;;;;;5005878;28;20485;-81
2023/07/07 01:19:59;;;;;;;8.77;6.60;;;13.80;99.90;;;;;;5023527;28;20044;-80
2023/07/07 01:22:25;;;;;;;8.80;6.15;;;13.80;99.90;;;;;;5022835;28;20208;-81
2023/07/07 01:25:22;;;;;;;12.05;6.70;;;13.70;99.90;;;;;;5022162;28;20165;-80
2023/07/07 01:28:32;;;;;;;10.60;6.13;;;13.70;99.90;;;;;;5022872;28;20026;-80
2023/07/07 01:31:09;;;;;;;9.30;6.00;;;13.70;99.90;;;;;;4982585;28;20164;-81
2023/07/07 01:33:35;;;;;;;10.80;6.00;;;13.70;99.90;;;;;;5022877;28;20033;-80
2023/07/07 01:36:00;;;;;;;8.50;5.97;;;13.70;99.90;;;;;;5022578;28;20033;-81
2023/07/07 01:38:28;;;;;;;8.10;5.97;;;13.70;99.90;;;;;;5022709;28;21450;-80
2023/07/07 01:41:02;;;;;;;8.18;6.00;;;13.70;99.90;;;;;;5021572;28;20029;-80
2023/07/07 01:43:35;;;;;;;10.23;6.07;;;13.70;99.90;;;;;;5018396;28;20049;-81
2023/07/07 01:46:29;;;;;;;8.10;5.60;;;13.60;99.90;;;;;;5020096;28;20144;-80
2023/07/07 01:49:19;;;;;;;9.93;6.47;;;13.60;99.90;;;;;;5019096;28;20863;-81
2023/07/07 01:51:53;;;;;;;10.43;6.25;;;13.70;99.90;;;;;;5020363;28;20022;-81
2023/07/07 01:54:21;;;;;;;7.70;5.70;;;13.60;99.90;;;;;;5020225;28;20044;-80
2023/07/07 01:56:48;;;;;;;9.45;5.57;;;13.60;99.90;;;;;;5021570;28;20022;-81
2023/07/07 01:59:16;;;;;;;8.15;5.65;;;13.60;99.90;;;;;;5020899;28;20021;-80
2023/07/07 02:01:42;;;;;;;10.55;6.05;;;13.50;99.90;;;;;;5020878;28;20103;-81
2023/07/07 02:04:08;;;;;;;7.90;5.57;;;13.50;99.90;;;;;;5024972;28;20086;-80
2023/07/07 02:06:33;;;;;;;8.90;5.45;;;13.40;99.90;;;;;;5023934;28;20021;-81
2023/07/07 02:08:59;;;;;;;8.35;5.88;;;13.40;99.90;;;;;;5022867;28;20033;-81
2023/07/07 02:11:24;;;;;;;9.50;5.70;;;13.40;99.90;;;;;;5022709;28;20030;-81
2023/07/07 02:13:50;;;;;;;7.75;5.47;;;13.40;99.90;;;;;;5022210;28;20037;-80
2023/07/07 02:16:16;;;;;;;7.82;5.95;;;13.40;99.90;;;;;;5022769;28;20037;-80
2023/07/07 02:18:41;;;;;;;7.88;5.63;;;13.40;99.90;;;;;;5019262;28;20036;-80
2023/07/07 02:21:07;;;;;;;9.60;5.78;;;13.30;99.90;;;;;;5019769;28;20103;-80
2023/07/07 02:23:33;;;;;;;7.85;5.43;;;13.30;99.90;;;;;;5018912;28;20105;-80
2023/07/07 02:25:59;;;;;;;8.02;5.60;;;13.30;99.90;;;;;;5019879;28;20033;-81
2023/07/07 02:28:24;;;;;;;8.55;6.00;;;13.30;99.90;;;;;;5019213;28;20041;-81
2023/07/07 02:30:52;;;;;;;11.00;6.05;;;13.20;99.90;;;;;;5019798;28;20030;-81
2023/07/07 02:33:18;;;;;;;7.78;5.70;;;13.20;99.90;;;;;;5018939;28;20037;-81
2023/07/07 02:35:48;;;;;;;8.02;5.40;;;13.30;99.90;;;;;;5019559;28;20120;-80
2023/07/07 02:38:14;;;;;;;8.57;5.80;;;13.20;99.90;;;;;;5019528;28;20056;-80
2023/07/07 02:40:40;;;;;;;8.63;5.95;;;13.20;99.90;;;;;;5019534;28;20070;-81
2023/07/07 02:43:05;;;;;;;9.60;5.63;;;13.20;99.90;;;;;;5018186;28;20045;-80
2023/07/07 02:45:31;;;;;;;8.98;5.30;;;13.20;99.90;;;;;;5018096;28;20152;-81
2023/07/07 02:47:56;;;;;;;10.18;5.78;;;13.20;99.90;;;;;;5018718;28;20117;-81
2023/07/07 02:50:22;;;;;;;8.52;5.10;;;13.10;99.90;;;;;;5019761;28;20046;-81
2023/07/07 02:52:47;;;;;;;10.90;5.70;;;13.10;99.90;;;;;;5020184;28;20033;-80
2023/07/07 02:55:13;;;;;;;9.73;5.55;;;13.10;99.90;;;;;;5020842;28;20095;-81
2023/07/07 02:57:38;;;;;;;9.32;5.93;;;13.00;99.90;;;;;;5022631;28;20048;-80
2023/07/07 03:00:08;;;;;;;9.63;5.85;;;13.00;99.90;;;;;;5019616;28;20050;-80
2023/07/07 03:02:34;;;;;;;9.55;5.70;;;13.00;99.90;;;;;;5018544;28;20048;-81
2023/07/07 03:04:59;;;;;;;9.65;5.63;;;13.00;99.90;;;;;;5018302;28;20025;-80
2023/07/07 03:07:25;;;;;;;10.93;6.47;;;13.00;99.90;;;;;;5019049;28;20036;-80
2023/07/07 03:09:50;;;;;;;8.57;5.70;;;13.00;99.90;;;;;;5018124;28;21323;-80
2023/07/07 03:12:16;;;;;;;10.70;5.82;;;13.00;99.90;;;;;;5017818;28;20033;-80
2023/07/07 03:14:41;;;;;;;8.60;5.60;;;12.90;99.90;;;;;;5016937;28;20064;-81
2023/07/07 03:17:09;;;;;;;8.07;5.68;;;12.90;99.90;;;;;;5017924;28;20038;-80
2023/07/07 03:19:34;;;;;;;10.45;5.22;;;12.80;99.90;;;;;;5017771;28;20543;-80
2023/07/07 03:22:00;;;;;;;11.23;5.90;;;12.80;99.90;;;;;;5016660;28;20041;-80
2023/07/07 03:24:25;;;;;;;10.02;5.40;;;12.80;99.90;;;;;;5017750;28;20031;-80
2023/07/07 03:26:51;;;;;;;10.85;6.10;;;12.70;99.90;;;;;;5017898;28;20056;-80
2023/07/07 03:29:16;;;;;;;8.23;5.65;;;12.70;99.90;;;;;;5017907;28;20069;-80
2023/07/07 03:31:42;;;;;;;10.00;5.95;;;12.70;99.90;;;;;;5018204;28;20095;-80
2023/07/07 03:34:07;;;;;;;10.75;5.90;;;12.70;99.90;;;;;;5018126;28;20029;-81
2023/07/07 03:36:34;;;;;;;8.55;5.93;;;12.60;99.90;;;;;;5017956;28;20102;-80
2023/07/07 03:39:00;;;;;;;11.65;6.45;;;12.70;99.90;;;;;;5017208;28;20030;-80
2023/07/07 03:41:29;;;;;;;9.40;5.70;;;12.70;99.90;;;;;;5017240;28;20022;-80
2023/07/07 03:43:55;;;;;;;9.52;5.88;;;12.70;99.90;;;;;;5016434;28;20038;-80
2023/07/07 03:46:24;;;;;;;8.95;5.97;;;12.60;99.90;;;;;;5018237;28;20037;-80
2023/07/07 03:48:53;;;;;;;10.90;5.75;;;12.70;99.90;;;;;;5018267;28;20030;-81
2023/07/07 03:51:20;;;;;;;8.82;5.35;;;12.60;99.90;;;;;;5018573;28;20029;-81
2023/07/07 03:53:47;;;;;;;7.88;5.30;;;12.60;99.90;;;;;;5016953;28;20030;-81
2023/07/07 03:56:13;;;;;;;11.27;6.05;;;12.50;99.90;;;;;;5017444;28;20045;-81
2023/07/07 03:58:39;;;;;;;11.50;5.40;;;12.60;99.90;;;;;;5017520;28;20033;-80
2023/07/07 04:01:07;;;;;;;11.68;5.90;;;12.50;99.90;;;;;;5016476;28;20375;-80
2023/07/07 04:03:33;;;;;;;9.13;5.68;;;12.50;99.90;;;;;;5014874;28;20047;-82
2023/07/07 04:06:00;;;;;;;8.85;5.28;;;12.50;99.90;;;;;;5017522;28;20075;-84
2023/07/07 04:08:26;;;;;;;7.45;5.43;;;12.50;99.90;;;;;;5018202;28;20034;-83
2023/07/07 04:11:00;;;;;;;11.50;5.95;;;12.50;99.90;;;;;;5016386;28;20444;-81
2023/07/07 04:13:27;;;;;;;7.75;5.25;;;12.50;99.90;;;;;;5015081;28;20034;-81
2023/07/07 04:16:07;;;;;;;7.40;5.30;;;12.60;99.90;;;;;;5013621;28;20069;-81
2023/07/07 04:18:33;;;;;;;7.97;5.15;;;12.60;99.90;;;;;;4997475;28;20033;-79
2023/07/07 04:21:07;;;;;;;10.20;6.00;;;12.70;99.90;;;;;;5016517;28;20413;-81
2023/07/07 04:23:34;;;;;;;10.65;5.50;;;12.70;99.90;;;;;;5014939;28;20073;-82
2023/07/07 04:26:00;;;;;;;9.65;5.90;;;12.80;99.90;;;;;;5017807;28;20109;-84
2023/07/07 04:28:26;;;;;;;7.72;5.65;;;12.80;99.90;;;;;;5017214;28;20037;-81
2023/07/07 04:30:56;;;;;;;14.43;6.03;;;12.90;99.90;;;;;;5013928;28;20048;-82
2023/07/07 04:33:23;;;;;;;11.35;6.10;;;13.00;99.90;;;;;;5012483;28;20615;-81
2023/07/07 04:35:54;;;;;;;13.32;5.70;;;13.10;99.90;;;;;;5012921;28;20535;-80
2023/07/07 04:38:20;;;;;;;9.90;5.70;;;13.10;99.90;;;;;;5014154;28;20084;-81
2023/07/07 04:40:46;;;;;;;9.30;6.03;;;13.20;99.90;;;;;;5012064;28;20549;-81
2023/07/07 04:43:11;;;;;;;8.75;5.43;;;13.20;99.90;;;;;;5012655;28;20156;-81
2023/07/07 04:45:37;;;;;;;8.90;5.15;;;13.30;99.90;;;;;;5013835;28;20075;-82
2023/07/07 04:48:03;;;;;;;11.55;5.70;;;13.30;99.90;;;;;;5014425;28;20030;-83
2023/07/07 04:50:28;;;;;;;10.05;5.35;;;13.40;99.90;;;;;;5014134;28;20037;-83
2023/07/07 04:52:54;;;;;;;11.30;5.40;;;13.50;99.90;;;;;;5015253;28;20048;-83
2023/07/07 04:55:20;;;;;;;9.20;4.97;;;13.60;99.90;;;;;;5012968;28;20022;-82
2023/07/07 04:57:45;;;;;;;8.40;5.30;;;13.60;99.90;;;;;;5014246;28;20036;-82
2023/07/07 05:00:12;;;;;;;10.30;5.68;;;13.70;99.90;;;;;;5013211;28;20634;-82
2023/07/07 05:02:38;;;;;;;9.90;5.32;;;13.90;99.90;;;;;;5014122;28;20064;-80
2023/07/07 05:05:04;;;;;;;7.03;5.15;;;13.90;99.90;;;;;;5014336;28;20026;-80
2023/07/07 05:07:29;;;;;;;10.20;5.60;;;14.00;99.90;;;;;;5014877;28;20022;-78
2023/07/07 05:09:56;;;;;;;11.63;5.70;;;14.20;99.90;;;;;;5010277;28;20132;-77
2023/07/07 05:12:21;;;;;;;8.40;5.93;;;14.30;99.90;;;;;;5009017;28;20030;-75
2023/07/07 05:14:47;;;;;;;14.23;5.72;;;14.40;99.90;;;;;;5011878;28;20040;-83
2023/07/07 05:17:12;;;;;;;9.18;5.43;;;14.60;99.90;;;;;;5016731;28;20116;-84
2023/07/07 05:19:38;;;;;;;8.73;5.07;;;14.70;99.90;;;;;;5013509;28;20034;-76
2023/07/07 05:24:45;;;;;;;9.30;5.78;;;14.90;99.90;;;;;;5005498;28;20053;-79
2023/07/07 05:27:11;;;;;;;10.80;5.63;;;15.10;99.90;;;;;;5012143;28;20042;-77
2023/07/07 05:29:36;;;;;;;7.55;4.93;;;15.20;99.90;;;;;;5007068;28;20366;-77
2023/07/07 05:32:02;;;;;;;7.25;4.90;;;15.40;99.90;;;;;;5005872;28;20037;-77
2023/07/07 05:34:27;;;;;;;9.02;5.43;;;15.60;99.90;;;;;;5006099;28;20087;-77
2023/07/07 05:36:53;;;;;;;7.93;5.47;;;15.70;99.90;;;;;;5006170;28;20442;-77
2023/07/07 05:39:19;;;;;;;9.43;5.28;;;15.90;99.90;;;;;;5005749;28;20121;-77
2023/07/07 05:41:44;;;;;;;10.32;5.65;;;16.10;99.90;;;;;;4985542;28;20042;-76
2023/07/07 05:44:10;;;;;;;8.50;4.68;;;16.20;99.90;;;;;;5002710;28;20124;-76
2023/07/07 05:46:37;;;;;;;12.40;5.47;;;16.40;99.90;;;;;;5004706;28;20169;-77
2023/07/07 05:49:03;;;;;;;8.32;5.10;;;16.60;99.90;;;;;;5002056;28;20405;-76
2023/07/07 05:51:28;;;;;;;6.55;5.00;;;16.80;99.90;;;;;;5002512;28;20042;-76
2023/07/07 05:53:54;;;;;;;10.55;5.25;;;17.00;99.90;;;;;;5008993;28;20036;-75
2023/07/07 05:56:23;;;;;;;7.10;5.00;;;17.10;99.90;;;;;;5008534;28;20041;-76
2023/07/07 05:58:50;;;;;;;10.73;5.28;;;17.30;99.90;;;;;;5010103;28;20116;-75
2023/07/07 06:01:15;;;;;;;7.00;4.85;;;17.40;99.90;;;;;;5009518;28;20446;-76
2023/07/07 06:03:42;;;;;;;10.40;5.28;;;17.60;99.90;;;;;;5009814;28;20124;-81
2023/07/07 06:06:08;;;;;;;8.77;4.80;;;17.80;99.90;;;;;;5008827;28;20179;-74
2023/07/07 06:08:34;;;;;;;9.57;4.90;;;17.90;99.90;;;;;;5008783;28;20477;-75
2023/07/07 06:10:59;;;;;;;7.20;5.00;;;18.00;99.90;;;;;;5008915;28;20033;-74
2023/07/07 06:13:27;;;;;;;8.13;5.00;;;18.20;99.90;;;;;;5007455;28;20461;-78
2023/07/07 06:15:53;;;;;;;6.53;4.38;;;18.30;99.90;;;;;;5009270;28;20034;-82
2023/07/07 06:18:19;;;;;;;8.15;5.18;;;18.50;99.90;;;;;;5011132;28;20037;-83
2023/07/07 06:20:49;;;;;;;10.35;5.22;;;18.70;99.90;;;;;;5009480;28;20048;-82
2023/07/07 06:23:15;;;;;;;7.25;4.68;;;18.80;99.90;;;;;;5011513;28;20056;-86
2023/07/07 06:25:41;;;;;;;7.13;4.57;;;19.00;99.90;;;;;;5015446;28;20034;-82
2023/07/07 06:28:06;;;;;;;10.20;5.47;;;19.00;99.90;;;;;;5013027;28;20108;-84
2023/07/07 06:30:32;;;;;;;6.53;4.50;;;19.10;99.90;;;;;;5012887;28;20031;-83
2023/07/07 06:32:58;;;;;;;14.63;5.60;;;19.20;99.90;;;;;;5015190;28;20065;-84
2023/07/07 06:35:25;;;;;;;10.63;5.40;;;19.40;99.90;;;;;;5012700;28;20029;-82
2023/07/07 06:37:51;;;;;;;10.57;5.65;;;19.50;99.90;;;;;;5013208;28;20050;-83
2023/07/07 06:40:16;;;;;;;8.45;5.60;;;19.70;99.90;;;;;;5014290;28;20038;-83
2023/07/07 06:42:42;;;;;;;12.93;5.13;;;19.80;99.90;;;;;;5013788;28;20041;-83
2023/07/07 06:45:08;;;;;;;12.73;5.68;;;20.00;99.90;;;;;;5013088;28;20112;-82
2023/07/07 06:47:33;;;;;;;11.32;5.72;;;20.00;99.90;;;;;;5014367;28;20044;-84
2023/07/07 06:49:59;;;;;;;11.98;5.07;;;20.10;99.90;;;;;;5014663;28;20026;-83
2023/07/07 06:52:24;;;;;;;9.60;5.32;;;20.20;99.90;;;;;;5014227;28;20034;-83
2023/07/07 06:54:50;;;;;;;10.77;6.47;;;20.30;99.90;;;;;;5013121;28;20041;-82
2023/07/07 06:57:15;;;;;;;10.07;5.68;;;20.40;99.90;;;;;;5014260;28;20047;-84
2023/07/07 06:59:41;;;;;;;10.93;5.38;;;20.50;99.90;;;;;;5015192;28;20482;-85
2023/07/07 07:02:12;;;;;;;10.50;5.50;;;20.70;99.90;;;;;;5015553;28;20057;-83
2023/07/07 07:04:38;;;;;;;11.93;5.10;;;20.80;99.90;;;;;;5012651;28;20112;-84
2023/07/07 07:07:04;;;;;;;13.07;5.57;;;20.80;99.90;;;;;;5013680;28;20097;-83
2023/07/07 07:09:29;;;;;;;11.98;5.82;;;20.90;99.90;;;;;;5014115;28;20116;-82
2023/07/07 07:11:55;;;;;;;11.82;5.03;;;21.00;99.90;;;;;;5013808;28;20172;-83
2023/07/07 07:14:20;;;;;;;10.27;4.53;;;21.10;99.90;;;;;;5013806;28;20030;-85
2023/07/07 07:16:46;;;;;;;9.95;4.93;;;21.20;99.90;;;;;;5014316;28;20045;-84
2023/07/07 07:19:11;;;;;;;10.20;5.13;;;21.30;99.90;;;;;;5012130;28;20064;-83
2023/07/07 07:21:37;;;;;;;10.73;4.57;;;21.40;99.90;;;;;;5012740;28;20781;-83
2023/07/07 07:24:03;;;;;;;10.57;4.70;;;21.40;99.90;;;;;;5012749;28;20041;-84
2023/07/07 07:26:28;;;;;;;11.95;5.32;;;21.60;99.90;;;;;;5013141;28;20478;-83
2023/07/07 07:28:54;;;;;;;8.85;5.00;;;21.70;99.90;;;;;;5012977;28;20184;-83
2023/07/07 07:31:19;;;;;;;9.13;4.57;;;21.60;99.90;;;;;;5012906;28;20054;-84
2023/07/07 07:33:52;;;;;;;8.68;4.47;;;21.70;99.90;;;;;;5011718;28;20065;-83
2023/07/07 07:36:17;;;;;;;8.98;5.15;;;21.80;99.90;;;;;;5013964;28;20136;-83
2023/07/07 07:38:43;;;;;;;7.10;4.60;;;21.80;99.90;;;;;;5013367;28;20128;-84
2023/07/07 07:41:08;;;;;;;7.72;4.95;;;21.90;99.90;;;;;;5012813;28;20035;-84
2023/07/07 07:43:34;;;;;;;8.45;4.70;;;22.00;99.90;;;;;;5012005;28;20119;-83
2023/07/07 07:46:00;;;;;;;8.60;5.10;;;22.10;99.90;;;;;;5012336;28;20057;-83
2023/07/07 07:48:25;;;;;;;8.00;4.50;;;22.20;99.90;;;;;;5012069;28;20033;-84
2023/07/07 07:50:51;;;;;;;9.93;4.68;;;22.20;99.90;;;;;;5011979;28;20037;-83
2023/07/07 07:53:16;;;;;;;8.55;4.70;;;22.30;99.90;;;;;;5012429;28;20036;-86
2023/07/07 07:55:42;;;;;;;6.63;4.90;;;22.40;99.90;;;;;;5013079;28;20038;-84
2023/07/07 07:58:07;;;;;;;8.15;4.72;;;22.50;99.90;;;;;;5013518;28;20144;-83
2023/07/07 08:00:33;;;;;;;10.52;4.65;;;22.60;99.90;;;;;;5012630;28;20348;-83
2023/07/07 08:02:58;;;;;;;6.97;4.32;;;22.70;99.90;;;;;;5012037;28;20524;-83
2023/07/07 08:05:24;;;;;;;9.13;4.53;;;22.80;99.90;;;;;;5012020;28;20033;-83
2023/07/07 08:07:50;;;;;;;8.25;5.20;;;22.90;99.90;;;;;;5008424;28;20520;-83
2023/07/07 08:10:16;;;;;;;7.93;4.60;;;22.80;99.90;;;;;;5009391;28;20052;-83
2023/07/07 08:12:42;;;;;;;11.30;4.97;;;22.90;99.90;;;;;;5012567;28;20405;-83
2023/07/07 08:15:10;;;;;;;7.60;4.40;;;23.10;99.90;;;;;;5010082;28;20030;-84
2023/07/07 08:17:36;;;;;;;9.63;4.80;;;23.10;99.90;;;;;;5013414;28;20029;-83
2023/07/07 08:20:05;;;;;;;7.93;5.00;;;23.20;99.90;;;;;;5009991;28;20405;-83
2023/07/07 08:22:31;;;;;;;6.47;4.65;;;23.30;99.90;;;;;;5010223;28;20046;-83
2023/07/07 08:24:57;;;;;;;7.13;4.55;;;23.40;99.90;;;;;;5010320;28;20036;-84
2023/07/07 08:27:26;;;;;;;6.88;4.32;;;23.50;99.90;;;;;;5010201;28;20037;-84
2023/07/07 08:29:53;;;;;;;6.50;4.40;;;23.50;99.90;;;;;;5010822;28;20289;-82
2023/07/07 08:32:21;;;;;;;6.35;4.20;;;23.70;99.90;;;;;;5010215;28;20044;-83
2023/07/07 08:34:49;;;;;;;5.60;4.03;;;23.70;99.90;;;;;;5010197;28;20033;-84
2023/07/07 08:37:17;;;;;;;7.65;4.45;;;23.70;99.90;;;;;;5007664;28;20405;-83
2023/07/07 08:39:42;;;;;;;7.07;4.78;;;23.70;99.90;;;;;;5009110;28;20049;-83
2023/07/07 08:42:23;;;;;;;7.03;4.22;;;23.80;99.90;;;;;;5008640;28;20037;-83
2023/07/07 08:44:48;;;;;;;6.07;4.25;;;23.90;99.70;;;;;;5010771;28;20077;-84
2023/07/07 08:47:53;;;;;;;9.38;4.45;;;23.80;98.90;;;;;;5010934;28;20052;-85
2023/07/07 08:50:53;;;;;;;7.03;4.20;;;23.90;99.90;;;;;;5012890;28;20033;-84
2023/07/07 08:53:43;;;;;;;7.93;4.88;;;24.00;99.90;;;;;;4997334;28;20065;-85
2023/07/07 08:56:32;;;;;;;8.43;4.88;;;24.10;99.90;;;;;;5011708;28;20135;-84
2023/07/07 08:59:21;;;;;;;8.75;4.97;;;24.20;99.90;;;;;;5012441;28;20033;-84
2023/07/07 09:02:00;;;;;;;7.05;4.60;;;24.20;99.90;;;;;;5012950;28;20090;-85
2023/07/07 09:04:31;;;;;;;6.15;4.55;;;24.30;99.60;;;;;;5010262;28;20061;-85
2023/07/07 09:07:27;;;;;;;5.97;4.90;;;24.30;97.80;;;;;;5010096;28;20029;-84
2023/07/07 09:10:07;;;;;;;7.72;4.72;;;24.40;99.00;;;;;;5010369;28;20037;-84
2023/07/07 09:12:41;;;;;;;10.20;5.18;;;24.40;98.20;;;;;;5012328;28;20040;-85
2023/07/07 09:15:38;;;;;;;7.65;4.60;;;24.60;98.30;;;;;;5009168;28;20029;-85
2023/07/07 09:18:20;;;;;;;7.68;4.70;;;24.60;98.20;;;;;;5011488;28;20034;-84
2023/07/07 09:20:50;;;;;;;7.35;4.55;;;24.70;98.70;;;;;;5015466;28;20130;-83
2023/07/07 09:23:20;;;;;;;9.20;4.75;;;24.70;99.60;;;;;;5017657;28;20052;-85
2023/07/07 09:25:52;;;;;;;8.27;5.38;;;24.80;98.30;;;;;;5011021;28;20064;-86
2023/07/07 09:28:18;;;;;;;7.13;5.13;;;24.80;98.40;;;;;;5012335;28;20140;-84
2023/07/07 09:30:46;;;;;;;7.10;5.00;;;24.90;98.80;;;;;;5013399;28;20037;-84
2023/07/07 09:33:17;;;;;;;9.57;5.30;;;24.90;98.40;;;;;;5012484;28;20057;-87
2023/07/07 09:36:09;;;;;;;8.55;4.95;;;25.10;98.20;;;;;;5012644;28;20032;-86
2023/07/07 09:38:52;;;;;;;8.60;4.90;;;25.20;97.60;;;;;;5014290;28;20048;-86
2023/07/07 09:41:29;;;;;;;8.82;5.15;;;25.40;97.10;;;;;;5012355;28;20044;-85
2023/07/07 09:44:07;;;;;;;6.70;5.00;;;25.70;96.90;;;;;;5009910;28;20378;-84
2023/07/07 09:46:47;;;;;;;6.38;4.63;;;25.90;97.90;;;;;;5012281;28;21137;-84
2023/07/07 09:49:43;;;;;;;8.25;4.75;;;26.10;96.10;;;;;;5010179;28;20034;-84
2023/07/07 09:52:37;;;;;;;8.00;4.97;;;26.30;95.70;;;;;;5010039;28;20109;-83
2023/07/07 09:55:12;;;;;;;6.88;5.00;;;26.60;94.50;;;;;;5009072;28;20034;-84
2023/07/07 09:57:41;;;;;;;7.72;5.47;;;26.80;93.50;;;;;;5008687;28;20034;-83
2023/07/07 10:00:14;;;;;;;8.48;5.32;;;27.10;93.10;;;;;;5012739;28;20143;-86
2023/07/07 10:02:40;;;;;;;8.90;5.10;;;27.30;91.20;;;;;;5017721;28;20042;-84
2023/07/07 10:05:09;;;;;;;7.60;4.70;;;27.60;91.80;;;;;;5013756;28;20072;-83
2023/07/07 10:07:38;;;;;;;6.45;5.18;;;27.90;91.30;;;;;;5015897;28;20718;-85
2023/07/07 10:10:05;;;;;;;9.35;5.35;;;28.00;91.10;;;;;;5015289;28;20086;-84
2023/07/07 10:12:31;;;;;;;7.90;4.85;;;28.10;90.00;;;;;;5015863;28;20094;-84
2023/07/07 10:14:58;;;;;;;6.45;4.82;;;28.30;91.20;;;;;;5012501;28;20674;-84
2023/07/07 10:17:58;;;;;;;6.38;4.88;;;28.50;90.40;;;;;;5013063;28;20056;-85
2023/07/07 10:20:23;;;;;;;8.38;4.88;;;28.80;87.50;;;;;;5015501;28;20060;-86
2023/07/07 10:22:49;;;;;;;8.43;4.97;;;28.90;86.50;;;;;;5014100;28;20041;-83
2023/07/07 10:25:16;;;;;;;7.20;5.38;;;28.80;85.90;;;;;;5014444;28;20934;-84
2023/07/07 10:27:51;;;;;;;7.25;5.05;;;28.70;83.40;;;;;;5015404;28;20116;-83
2023/07/07 10:30:17;;;;;;;7.82;6.13;;;28.60;83.60;;;;;;5016008;28;20033;-84
2023/07/07 10:32:43;;;;;;;7.30;5.60;;;28.70;83.20;;;;;;5015846;28;20036;-84
2023/07/07 10:35:12;;;;;;;6.88;5.28;;;28.80;76.60;;;;;;5014474;28;20078;-85
2023/07/07 10:37:38;;;;;;;6.25;5.00;;;28.90;83.90;;;;;;5011030;28;20071;-85
2023/07/07 10:40:05;;;;;;;6.75;5.32;;;29.20;79.30;;;;;;5011038;28;20124;-86
2023/07/07 10:42:32;;;;;;;6.28;5.00;;;29.20;78.50;;;;;;5008271;28;20037;-86
2023/07/07 10:45:00;;;;;;;10.93;5.78;;;29.30;80.50;;;;;;5012467;28;20032;-84
2023/07/07 10:47:29;;;;;;;6.13;5.10;;;29.10;79.90;;;;;;5013290;28;20041;-84
2023/07/07 10:49:58;;;;;;;10.85;5.97;;;29.20;80.00;;;;;;5013931;28;20021;-84
2023/07/07 10:52:32;;;;;;;7.53;5.38;;;29.20;82.30;;;;;;5011884;28;20034;-85
2023/07/07 10:55:27;;;;;;;10.48;5.65;;;29.40;80.10;;;;;;5009170;28;20697;-84
2023/07/07 10:58:01;;;;;;;;;;;29.50;77.30;;;;;;5010236;28;20045;-85
2023/07/07 11:00:33;;;;;;;10.18;5.82;;;29.60;80.90;;;;;;5009396;28;20254;-84
2023/07/07 11:03:13;;;;;;;8.82;5.82;;;29.80;78.60;;;;;;5008326;28;21387;-86
2023/07/07 11:06:17;;;;;;;8.10;5.97;;;29.90;76.00;;;;;;5013301;28;20037;-84
2023/07/07 11:09:00;;;;;;;7.47;5.60;;;30.10;73.50;;;;;;4972986;28;20041;-84
2023/07/07 11:11:35;;;;;;;8.90;5.80;;;30.50;74.10;;;;;;5014749;28;20028;-86
2023/07/07 11:14:08;;;;;;;12.55;6.05;;;30.70;73.00;;;;;;5010732;28;20045;-85
2023/07/07 11:17:01;;;;;;;8.38;6.30;;;30.70;72.50;;;;;;5010681;28;20121;-86
2023/07/07 11:19:53;;;;;;;8.10;5.80;;;30.60;71.40;;;;;;5011189;28;20106;-87
2023/07/07 11:22:56;;;;;;;7.85;5.05;;;30.60;73.60;;;;;;5014551;28;20056;-84
2023/07/07 11:25:34;;;;;;;8.77;6.18;;;30.80;74.30;;;;;;5011520;28;20480;-84
2023/07/07 11:28:21;;;;;;;10.15;6.18;;;31.00;71.20;;;;;;5012007;28;21475;-84
2023/07/07 11:30:59;;;;;;;8.05;5.93;;;31.20;70.70;;;;;;5012485;28;20029;-84
2023/07/07 11:33:48;;;;;;;7.82;5.85;;;31.20;72.10;;;;;;5034877;22;20041;-84
2023/07/07 11:36:29;;;;;;;7.28;6.05;;;31.30;69.60;;;;;;4990252;28;20109;-83
2023/07/07 11:39:17;;;;;;;8.00;5.90;;;31.30;68.20;;;;;;4992398;28;20108;-84
2023/07/07 11:41:54;;;;;;;8.95;6.55;;;31.20;69.70;;;;;;4992145;28;20084;-85
2023/07/07 11:44:29;;;;;;;8.95;6.75;;;31.50;68.30;;;;;;4991901;28;20064;-85
2023/07/07 11:47:13;;;;;;;10.18;6.07;;;31.50;66.90;;;;;;4992571;28;20455;-85
2023/07/07 11:49:39;;;;;;;;;;;31.50;68.60;;;;;;4995472;28;20045;-83
2023/07/07 11:52:21;;;;;;;8.80;6.20;;;31.60;68.80;;;;;;4998275;28;19909;-83
2023/07/07 11:55:17;;;;;;;9.73;6.53;;;31.70;67.00;;;;;;4993915;28;20030;-82
2023/07/07 11:58:12;;;;;;;8.43;5.80;;;31.60;68.90;;;;;;4996045;28;20023;-83
2023/07/07 12:00:52;;;;;;;9.02;6.00;;;31.50;69.20;;;;;;4998673;28;20057;-83
2023/07/07 12:03:39;;;;;;;9.00;6.07;;;31.50;67.20;;;;;;4998308;28;20043;-84
2023/07/07 12:06:32;;;;;;;9.13;6.45;;;31.60;65.90;;;;;;4997963;28;20042;-83
2023/07/07 12:09:02;;;;;;;9.60;6.20;;;31.50;68.20;;;;;;4996958;28;20046;-83
2023/07/07 12:11:41;;;;;;;8.93;6.40;;;31.50;71.30;;;;;;4995813;28;20026;-83
2023/07/07 12:14:31;;;;;;;9.48;6.53;;;31.70;69.00;;;;;;4996858;28;20030;-82
2023/07/07 12:16:59;;;;;;;8.80;5.75;;;31.90;64.30;;;;;;4995685;28;20026;-83
2023/07/07 12:19:39;;;;;;;12.88;6.72;;;31.90;65.40;;;;;;4996593;28;21507;-82
2023/07/07 12:22:19;;;;;;;10.68;6.63;;;32.20;68.00;;;;;;4996722;28;20248;-84
2023/07/07 12:24:49;;;;;;;8.00;6.35;;;32.30;60.20;;;;;;4997131;28;20030;-83
2023/07/07 12:27:25;;;;;;;11.57;6.68;;;32.40;59.30;;;;;;4998036;28;20041;-82
2023/07/07 12:29:52;;;;;;;8.75;6.43;;;32.50;60.50;;;;;;4996318;28;20033;-84
2023/07/07 12:32:18;;;;;;;9.85;6.40;;;32.40;59.80;;;;;;5000922;28;20030;-83
2023/07/07 12:34:49;;;;;;;8.80;6.95;;;32.40;58.50;;;;;;4982829;28;20148;-82
2023/07/07 12:37:21;;;;;;;10.10;6.38;;;32.50;57.90;;;;;;4999527;28;20041;-83
2023/07/07 12:39:54;;;;;;;9.07;6.50;;;32.70;58.50;;;;;;4999982;28;20034;-84
2023/07/07 12:42:22;;;;;;;11.27;7.50;;;32.70;58.20;;;;;;4997117;28;20124;-83
2023/07/07 12:44:49;;;;;;;11.30;6.90;;;32.80;57.40;;;;;;4998623;28;20025;-82
2023/07/07 12:47:30;;;;;;;9.40;7.28;;;33.00;57.80;;;;;;4998515;28;20093;-83
2023/07/07 12:49:59;;;;;;;8.52;6.72;;;33.30;57.70;;;;;;4999088;28;20102;-84
2023/07/07 12:52:31;;;;;;;8.48;6.80;;;33.50;54.20;;;;;;4999002;28;20041;-82
2023/07/07 12:55:18;;;;;;;11.02;6.65;;;33.60;54.00;;;;;;4997302;28;20188;-82
2023/07/07 12:58:00;;;;;;;10.38;6.13;;;33.50;53.60;;;;;;4998724;28;20064;-82
2023/07/07 13:00:39;;;;;;;11.20;7.38;;;33.80;53.20;;;;;;4999554;28;20735;-82
2023/07/07 13:03:11;;;;;;;9.75;6.32;;;34.00;51.30;;;;;;4997668;28;20072;-84